Terminal Aerodrome Forecast
Issued by NWS

Home | Current Version | Previous Version | Text Only | Print | Product List | Glossary On
Versions: 1 2 3 4 5 6 7 8 9 10 11 12 13 14 15 16
000
FTUS41 KPBZ 252324
TAFZZV
TAF
KZZV 252324Z 2600/2624 06007KT 6SM -RA BR OVC050
      TEMPO 2600/2602 2SM -RA BR OVC015
     FM260200 05005KT 3SM -RA BR OVC015
     FM260600 01008KT P6SM BKN035
     FM261400 36006KT P6SM BKN050=

USA.gov is the U.S. government's official web portal to all federal, state and local government web resources and services.